Time;durP1;ratioP1;P1;durP2;ratioP2;P2;SDS_P1;SDS_P2;PMS_P1;PMS_P2;Temp;Humidity;BMP_temperature;BMP_pressure;BME280_temperature;BME280_humidity;BME280_pressure;Samples;Min_cycle;Max_cycle;Signal;HPM_P1;HPM_P2
2021/11/15 00:01:14;;;;;;;11.05;8.95;;;23.00;36.30;;;;;;5046428;28;20472;-59
2021/11/15 00:03:43;;;;;;;11.65;9.07;;;23.00;36.30;;;;;;5036390;28;20048;-60
2021/11/15 00:06:10;;;;;;;10.88;8.27;;;23.00;36.30;;;;;;5047193;28;20048;-60
2021/11/15 00:08:38;;;;;;;11.30;8.98;;;23.00;36.30;;;;;;5048650;28;20080;-60
2021/11/15 00:11:05;;;;;;;11.82;9.10;;;23.00;36.30;;;;;;5049605;28;20044;-60
2021/11/15 00:13:33;;;;;;;10.70;8.80;;;23.00;36.20;;;;;;5045939;28;20064;-60
2021/11/15 00:16:00;;;;;;;10.15;8.30;;;22.90;36.20;;;;;;5049780;28;20090;-60
2021/11/15 00:18:28;;;;;;;10.82;8.23;;;22.90;36.20;;;;;;5051236;28;20048;-60
2021/11/15 00:20:55;;;;;;;10.20;8.07;;;22.90;36.20;;;;;;5044136;28;20683;-60
2021/11/15 00:23:22;;;;;;;12.05;9.38;;;22.90;36.20;;;;;;5043637;28;20052;-60
2021/11/15 00:25:50;;;;;;;10.35;8.02;;;22.90;36.20;;;;;;5051630;28;20056;-59
2021/11/15 00:28:17;;;;;;;10.63;8.15;;;22.90;36.30;;;;;;5049555;28;20044;-60
2021/11/15 00:30:46;;;;;;;11.32;8.43;;;22.90;36.30;;;;;;5044345;28;20564;-61
2021/11/15 00:33:13;;;;;;;10.48;8.63;;;22.90;36.30;;;;;;5039837;28;20056;-60
2021/11/15 00:35:40;;;;;;;10.73;8.38;;;22.90;36.30;;;;;;5050264;28;20052;-60
2021/11/15 00:38:08;;;;;;;12.07;8.98;;;22.90;36.30;;;;;;5051780;28;20716;-60
2021/11/15 00:40:35;;;;;;;12.68;9.13;;;22.90;36.30;;;;;;5049957;28;20460;-60
2021/11/15 00:43:02;;;;;;;11.73;9.07;;;22.90;36.30;;;;;;5037023;28;20056;-60
2021/11/15 00:45:29;;;;;;;11.15;8.45;;;22.90;36.30;;;;;;5051110;28;20216;-60
2021/11/15 00:47:57;;;;;;;11.10;8.23;;;22.90;36.30;;;;;;5050781;28;20056;-60
2021/11/15 00:50:24;;;;;;;12.18;9.30;;;22.90;36.30;;;;;;5050496;28;20139;-60
2021/11/15 00:52:51;;;;;;;11.40;8.75;;;22.90;36.30;;;;;;5032564;28;20048;-59
2021/11/15 00:55:19;;;;;;;10.90;8.40;;;22.90;36.30;;;;;;5050702;28;20048;-59
2021/11/15 00:57:47;;;;;;;11.48;8.32;;;22.90;36.30;;;;;;5051347;28;20052;-59
2021/11/15 01:00:21;;;;;;;11.35;8.82;;;22.90;36.30;;;;;;5051455;28;20080;-59
2021/11/15 01:02:48;;;;;;;11.27;8.23;;;22.90;36.40;;;;;;5038428;28;20044;-59
2021/11/15 01:05:16;;;;;;;11.63;8.27;;;22.90;36.30;;;;;;5049970;28;20060;-59
2021/11/15 01:07:44;;;;;;;9.43;7.80;;;22.80;36.30;;;;;;5050535;28;20103;-59
2021/11/15 01:10:13;;;;;;;10.43;8.10;;;22.90;36.40;;;;;;5050270;28;20448;-59
2021/11/15 01:12:41;;;;;;;11.38;8.13;;;22.80;36.30;;;;;;5031552;28;20084;-59
2021/11/15 01:15:13;;;;;;;10.45;8.50;;;22.90;36.40;;;;;;5050571;28;21002;-59
2021/11/15 01:17:41;;;;;;;10.60;8.30;;;22.90;36.30;;;;;;5050155;28;20383;-59
2021/11/15 01:20:11;;;;;;;12.75;9.20;;;22.80;36.30;;;;;;5049979;28;20094;-59
2021/11/15 01:22:38;;;;;;;11.20;8.32;;;22.80;36.30;;;;;;5036010;28;20056;-59
2021/11/15 01:25:07;;;;;;;9.23;6.97;;;22.80;36.30;;;;;;5069926;28;20537;-59
2021/11/15 01:27:35;;;;;;;11.65;8.50;;;22.80;36.30;;;;;;5069716;28;20082;-59
2021/11/15 01:30:05;;;;;;;10.52;8.60;;;22.80;36.30;;;;;;5068763;28;20083;-59
2021/11/15 01:32:32;;;;;;;11.03;8.43;;;22.80;36.30;;;;;;5044110;28;20135;-59
2021/11/15 01:34:59;;;;;;;10.15;8.45;;;22.80;36.30;;;;;;5050020;28;20099;-59
2021/11/15 01:37:26;;;;;;;12.25;8.65;;;22.80;36.30;;;;;;5050771;28;20114;-59
2021/11/15 01:39:53;;;;;;;11.27;8.65;;;22.80;36.20;;;;;;5049571;28;20551;-59
2021/11/15 01:42:22;;;;;;;9.85;8.02;;;22.90;36.30;;;;;;5039391;28;20048;-59
2021/11/15 01:44:49;;;;;;;11.50;8.38;;;22.80;36.30;;;;;;5069982;28;20108;-59
2021/11/15 01:47:17;;;;;;;11.35;8.65;;;22.90;36.30;;;;;;5069664;28;20047;-59
2021/11/15 01:49:44;;;;;;;12.38;9.07;;;22.80;36.20;;;;;;5069450;28;20169;-59
2021/11/15 01:52:12;;;;;;;10.18;6.95;;;22.80;36.30;;;;;;5041012;28;20437;-59
2021/11/15 01:54:40;;;;;;;10.93;8.32;;;22.90;36.30;;;;;;5068706;28;20093;-59
2021/11/15 01:57:07;;;;;;;9.55;7.70;;;22.80;36.20;;;;;;5069493;28;20087;-59
2021/11/15 01:59:34;;;;;;;11.38;7.82;;;22.90;36.20;;;;;;5069404;28;20729;-59
2021/11/15 02:02:02;;;;;;;9.63;7.57;;;22.90;36.30;;;;;;5041826;28;20079;-59
2021/11/15 02:04:30;;;;;;;9.65;7.70;;;22.80;36.20;;;;;;5069051;28;20101;-59
2021/11/15 02:06:57;;;;;;;9.07;7.35;;;22.90;36.30;;;;;;5069838;28;20052;-59
2021/11/15 02:09:26;;;;;;;10.00;7.95;;;22.90;36.30;;;;;;5068818;28;20051;-59
2021/11/15 02:11:54;;;;;;;9.10;7.22;;;22.80;36.20;;;;;;5057800;28;20056;-59
2021/11/15 02:14:21;;;;;;;10.15;7.53;;;22.80;36.20;;;;;;5045397;28;20527;-60
2021/11/15 02:16:49;;;;;;;9.50;7.65;;;22.90;36.30;;;;;;5048999;28;20109;-59
2021/11/15 02:19:16;;;;;;;10.85;7.53;;;22.80;36.20;;;;;;5048533;28;20057;-59
2021/11/15 02:21:43;;;;;;;11.40;8.27;;;22.90;36.30;;;;;;5040415;28;20058;-59
2021/11/15 02:24:10;;;;;;;9.45;7.28;;;22.80;36.30;;;;;;5043736;28;20060;-59
2021/11/15 02:26:38;;;;;;;9.00;7.10;;;22.80;36.30;;;;;;5047779;28;20052;-59
2021/11/15 02:29:05;;;;;;;8.68;7.13;;;22.80;36.20;;;;;;5048184;28;20056;-59
2021/11/15 02:31:33;;;;;;;9.32;7.40;;;22.80;36.30;;;;;;5037680;28;20456;-59
2021/11/15 02:34:00;;;;;;;8.77;7.28;;;22.80;36.30;;;;;;5063246;28;20052;-59
2021/11/15 02:36:28;;;;;;;8.95;7.22;;;22.80;36.30;;;;;;5069209;28;20048;-59
2021/11/15 02:38:57;;;;;;;9.18;7.72;;;22.80;36.30;;;;;;5068730;28;20052;-59
2021/11/15 02:41:26;;;;;;;8.77;7.13;;;22.80;36.30;;;;;;5049398;28;20501;-59
2021/11/15 02:43:54;;;;;;;9.75;7.60;;;22.80;36.30;;;;;;5059371;28;20059;-59
2021/11/15 02:46:21;;;;;;;8.85;7.15;;;22.80;36.30;;;;;;5067534;28;20052;-59
2021/11/15 02:48:48;;;;;;;11.05;7.18;;;22.70;36.30;;;;;;5068427;28;20056;-59
2021/11/15 02:51:16;;;;;;;8.50;6.75;;;22.80;36.30;;;;;;5060267;28;20138;-59
2021/11/15 02:53:43;;;;;;;9.25;6.95;;;22.80;36.30;;;;;;5038704;28;20607;-59
2021/11/15 02:56:11;;;;;;;9.10;7.10;;;22.80;36.30;;;;;;5047609;28;20139;-59
2021/11/15 02:58:39;;;;;;;8.85;6.90;;;22.80;36.30;;;;;;5048390;28;20053;-59
2021/11/15 03:01:12;;;;;;;8.10;7.28;;;22.80;36.30;;;;;;5040468;28;20121;-59
2021/11/15 03:03:40;;;;;;;9.07;7.05;;;22.80;36.30;;;;;;5037555;28;20048;-59
2021/11/15 03:06:08;;;;;;;9.07;6.25;;;22.80;36.30;;;;;;5048235;28;20059;-59
2021/11/15 03:08:35;;;;;;;7.85;6.80;;;22.80;36.30;;;;;;5048581;28;20573;-59
2021/11/15 03:11:05;;;;;;;8.98;6.88;;;22.80;36.40;;;;;;5039643;28;20062;-59
2021/11/15 03:13:39;;;;;;;8.02;6.57;;;22.70;36.30;;;;;;5037547;28;20048;-59
2021/11/15 03:16:09;;;;;;;8.65;6.60;;;22.70;36.30;;;;;;5048276;28;20694;-59
2021/11/15 03:18:37;;;;;;;;;;;22.80;36.40;;;;;;5048657;28;20060;-59
2021/11/15 03:21:18;;;;;;;7.72;6.38;;;22.70;36.30;;;;;;5040072;28;20037;-59
2021/11/15 03:23:49;;;;;;;7.25;6.35;;;22.70;36.30;;;;;;5056959;28;20056;-59
2021/11/15 03:26:16;;;;;;;7.95;6.65;;;22.80;36.30;;;;;;5068418;28;20052;-59
2021/11/15 03:28:47;;;;;;;8.93;6.97;;;22.80;36.30;;;;;;5069107;28;20460;-60
2021/11/15 03:31:19;;;;;;;;;;;22.80;36.30;;;;;;5057045;28;20497;-60
2021/11/15 03:33:48;;;;;;;8.20;6.80;;;22.80;36.30;;;;;;5042540;28;19934;-60
2021/11/15 03:36:16;;;;;;;8.47;6.57;;;22.80;36.30;;;;;;5047942;28;20053;-60
2021/11/15 03:38:44;;;;;;;8.02;6.43;;;22.80;36.30;;;;;;5048437;28;20297;-60
2021/11/15 03:41:12;;;;;;;7.63;6.82;;;22.80;36.30;;;;;;5045039;28;20135;-60
2021/11/15 03:43:39;;;;;;;7.97;6.65;;;22.80;36.30;;;;;;5047086;28;20052;-60
2021/11/15 03:46:07;;;;;;;7.80;6.88;;;22.80;36.20;;;;;;5050439;28;20529;-60
2021/11/15 03:48:34;;;;;;;7.88;6.70;;;22.80;36.30;;;;;;5051963;28;20044;-60
2021/11/15 03:51:01;;;;;;;7.70;6.82;;;22.80;36.20;;;;;;5048604;28;20048;-60
2021/11/15 03:53:36;;;;;;;7.57;6.28;;;22.80;36.30;;;;;;5055801;28;20160;-60
2021/11/15 03:56:08;;;;;;;6.65;5.88;;;22.80;36.30;;;;;;5071728;28;20485;-60
2021/11/15 03:58:36;;;;;;;7.25;6.38;;;22.80;36.30;;;;;;5072976;28;20060;-60
2021/11/15 04:01:03;;;;;;;8.80;6.60;;;22.80;36.30;;;;;;5061169;28;20605;-60
2021/11/15 04:03:33;;;;;;;6.88;5.88;;;22.70;36.20;;;;;;5051680;28;20055;-60
2021/11/15 04:06:12;;;;;;;8.30;6.72;;;22.70;36.30;;;;;;5072209;28;20105;-60
2021/11/15 04:08:41;;;;;;;6.70;5.55;;;22.70;36.30;;;;;;5071949;28;20071;-60
2021/11/15 04:11:09;;;;;;;6.40;5.63;;;22.70;36.30;;;;;;5058895;28;20102;-60
2021/11/15 04:13:40;;;;;;;7.70;6.32;;;22.70;36.30;;;;;;5059423;28;20905;-60
2021/11/15 04:16:13;;;;;;;7.32;5.93;;;22.70;36.30;;;;;;5068354;28;20655;-60
2021/11/15 04:18:52;;;;;;;7.22;6.10;;;22.70;36.30;;;;;;5051307;28;20056;-60
2021/11/15 04:21:22;;;;;;;7.30;5.88;;;22.70;36.30;;;;;;5030829;28;20075;-60
2021/11/15 04:23:49;;;;;;;7.00;6.05;;;22.70;36.30;;;;;;5062093;28;20055;-60
2021/11/15 04:26:16;;;;;;;6.43;5.72;;;22.70;36.30;;;;;;5070199;28;20060;-59
2021/11/15 04:28:43;;;;;;;7.35;6.00;;;22.70;36.30;;;;;;5071340;28;20137;-60
2021/11/15 04:31:11;;;;;;;6.03;5.43;;;22.70;36.30;;;;;;5058918;28;20084;-60
2021/11/15 04:33:39;;;;;;;6.22;5.60;;;22.70;36.30;;;;;;5045738;28;20084;-60
2021/11/15 04:36:06;;;;;;;6.10;5.50;;;22.70;36.30;;;;;;5050704;28;20095;-60
2021/11/15 04:38:33;;;;;;;6.22;5.47;;;22.70;36.30;;;;;;5038634;28;20060;-60
2021/11/15 04:41:01;;;;;;;6.70;6.00;;;22.70;36.40;;;;;;5033860;28;20071;-60
2021/11/15 04:43:28;;;;;;;6.10;5.07;;;22.70;36.40;;;;;;5046191;28;20110;-60
2021/11/15 04:45:55;;;;;;;6.38;5.70;;;22.70;36.40;;;;;;5047055;28;20052;-60
2021/11/15 04:48:22;;;;;;;6.45;5.72;;;22.70;36.40;;;;;;5039829;28;20053;-60
2021/11/15 04:50:49;;;;;;;6.72;6.07;;;22.70;36.40;;;;;;5027116;28;20049;-60
2021/11/15 04:53:17;;;;;;;6.38;5.28;;;22.70;36.40;;;;;;5028450;28;20079;-60
2021/11/15 04:55:44;;;;;;;6.72;5.68;;;22.70;36.40;;;;;;5038413;28;20048;-60
2021/11/15 04:58:11;;;;;;;6.53;5.35;;;22.70;36.90;;;;;;5035616;28;20574;-60
2021/11/15 05:00:39;;;;;;;5.78;5.03;;;22.70;36.40;;;;;;5033048;28;20088;-60
2021/11/15 05:03:07;;;;;;;6.43;5.72;;;22.70;36.40;;;;;;5035025;28;20049;-60
2021/11/15 05:05:34;;;;;;;5.78;5.25;;;22.70;36.40;;;;;;5035945;28;20145;-60
2021/11/15 05:08:01;;;;;;;5.95;5.35;;;22.70;36.40;;;;;;5029244;28;20506;-60
2021/11/15 05:10:30;;;;;;;6.70;5.43;;;22.70;36.40;;;;;;5029451;28;20099;-61
2021/11/15 05:13:01;;;;;;;6.32;5.72;;;22.70;36.40;;;;;;5053380;28;20122;-60
2021/11/15 05:15:28;;;;;;;5.82;5.22;;;22.70;36.30;;;;;;5070306;28;20713;-60
2021/11/15 05:17:55;;;;;;;5.70;5.10;;;22.70;36.30;;;;;;5051194;28;20106;-60
2021/11/15 05:20:23;;;;;;;6.22;5.50;;;22.70;36.30;;;;;;5049982;28;20135;-60
2021/11/15 05:22:50;;;;;;;6.78;5.80;;;22.70;36.30;;;;;;5035537;28;20094;-60
2021/11/15 05:25:19;;;;;;;6.07;5.40;;;22.70;36.30;;;;;;5035102;28;20102;-60
2021/11/15 05:27:47;;;;;;;6.15;5.25;;;22.70;36.30;;;;;;5048476;28;20052;-60
2021/11/15 05:30:17;;;;;;;5.50;4.90;;;22.70;36.30;;;;;;5049715;28;20084;-60
2021/11/15 05:32:45;;;;;;;5.63;5.13;;;22.70;36.30;;;;;;5033922;28;20151;-60
2021/11/15 05:35:12;;;;;;;7.05;6.10;;;22.70;36.30;;;;;;5068464;28;20752;-60
2021/11/15 05:37:39;;;;;;;6.10;5.07;;;22.70;36.30;;;;;;5053895;28;20049;-61
2021/11/15 05:40:08;;;;;;;6.90;5.70;;;22.70;36.30;;;;;;5035625;28;20407;-60
2021/11/15 05:42:36;;;;;;;5.82;5.25;;;22.70;36.30;;;;;;5031062;28;20462;-60
2021/11/15 05:45:05;;;;;;;6.22;5.60;;;22.70;36.30;;;;;;5038431;28;20494;-60
2021/11/15 05:47:32;;;;;;;5.60;4.93;;;22.70;36.30;;;;;;5041177;28;20056;-60
2021/11/15 05:50:00;;;;;;;6.13;5.18;;;22.70;36.30;;;;;;5048596;28;20048;-60
2021/11/15 05:52:28;;;;;;;6.00;5.30;;;22.70;36.30;;;;;;5028326;28;20148;-60
2021/11/15 05:54:55;;;;;;;6.32;5.57;;;22.70;36.30;;;;;;5036883;28;20083;-60
2021/11/15 05:57:23;;;;;;;6.13;5.30;;;22.70;36.30;;;;;;5035566;28;20071;-60
2021/11/15 05:59:50;;;;;;;6.35;5.45;;;22.70;36.40;;;;;;5032133;28;20053;-60
2021/11/15 06:02:17;;;;;;;5.22;4.72;;;22.60;36.30;;;;;;5018238;28;20448;-60
2021/11/15 06:04:44;;;;;;;5.82;5.13;;;22.70;36.40;;;;;;5035596;28;20076;-61
2021/11/15 06:07:11;;;;;;;5.57;4.97;;;22.70;36.40;;;;;;5043861;28;20056;-60
2021/11/15 06:09:39;;;;;;;6.20;5.03;;;22.70;36.30;;;;;;5042041;28;20053;-60
2021/11/15 06:12:07;;;;;;;6.35;5.68;;;22.70;36.20;;;;;;5027826;28;20091;-60
2021/11/15 06:14:35;;;;;;;5.78;5.20;;;22.70;36.20;;;;;;5033427;28;20053;-60
2021/11/15 06:17:03;;;;;;;5.43;4.93;;;22.70;36.20;;;;;;5035455;28;20173;-60
2021/11/15 06:19:30;;;;;;;5.95;4.68;;;22.70;36.10;;;;;;5030795;28;20087;-60
2021/11/15 06:21:57;;;;;;;4.95;4.53;;;22.70;36.10;;;;;;5025154;28;20141;-61
2021/11/15 06:24:25;;;;;;;5.55;4.70;;;22.70;36.30;;;;;;5026850;28;20048;-61
2021/11/15 06:26:52;;;;;;;5.53;4.70;;;22.80;36.30;;;;;;5033077;28;20134;-61
2021/11/15 06:29:19;;;;;;;4.60;4.20;;;22.80;36.30;;;;;;5032170;28;20506;-62
2021/11/15 06:31:47;;;;;;;4.47;4.07;;;22.90;36.10;;;;;;5015090;28;20524;-63
2021/11/15 06:34:14;;;;;;;5.07;4.57;;;22.90;36.00;;;;;;5018828;28;20501;-63
2021/11/15 06:36:41;;;;;;;4.10;3.70;;;23.00;36.50;;;;;;5027729;28;20052;-62
2021/11/15 06:39:08;;;;;;;5.13;4.10;;;23.00;37.00;;;;;;5016314;28;20509;-63
2021/11/15 06:41:37;;;;;;;4.60;3.97;;;23.10;37.10;;;;;;5018476;28;20083;-66
2021/11/15 06:44:06;;;;;;;5.15;4.53;;;23.20;37.20;;;;;;5025008;28;20449;-65
2021/11/15 06:46:33;;;;;;;5.10;4.60;;;23.20;37.20;;;;;;5027063;28;20143;-65
2021/11/15 06:49:01;;;;;;;4.32;3.92;;;23.30;37.00;;;;;;5028115;28;20056;-63
2021/11/15 06:51:36;;;;;;;7.00;4.47;;;23.30;36.80;;;;;;5018167;28;20048;-64
2021/11/15 06:54:04;;;;;;;6.82;4.03;;;23.40;36.70;;;;;;5024483;28;20059;-63
2021/11/15 06:56:31;;;;;;;7.10;4.15;;;23.50;36.50;;;;;;5030181;28;20047;-64
2021/11/15 06:59:00;;;;;;;3.92;3.60;;;23.50;36.30;;;;;;5027224;28;20140;-64
2021/11/15 07:01:36;;;;;;;6.85;4.20;;;23.60;36.30;;;;;;5016306;28;20557;-64
2021/11/15 07:04:05;;;;;;;4.05;3.60;;;23.70;36.40;;;;;;5025990;28;20403;-62
2021/11/15 07:06:33;;;;;;;6.00;3.33;;;23.80;36.50;;;;;;5030658;28;20471;-61
2021/11/15 07:09:00;;;;;;;6.70;4.20;;;23.80;36.20;;;;;;5035594;28;20449;-65
2021/11/15 07:11:28;;;;;;;3.35;3.05;;;23.90;36.40;;;;;;5026339;28;20045;-62
2021/11/15 07:13:55;;;;;;;3.80;3.45;;;23.90;36.40;;;;;;5022230;28;20060;-67
2021/11/15 07:16:24;;;;;;;3.25;2.97;;;24.00;36.30;;;;;;5028154;28;20044;-63
2021/11/15 07:18:52;;;;;;;5.20;3.90;;;24.00;36.40;;;;;;5027123;28;20072;-63
2021/11/15 07:21:20;;;;;;;3.83;3.35;;;24.10;37.10;;;;;;5004094;28;20080;-65
2021/11/15 07:23:48;;;;;;;3.50;3.22;;;24.20;36.70;;;;;;5014683;28;20049;-64
2021/11/15 07:26:16;;;;;;;4.32;3.33;;;24.30;36.90;;;;;;5030473;28;20056;-62
2021/11/15 07:28:46;;;;;;;3.25;3.05;;;24.30;36.90;;;;;;5027781;28;20128;-65
2021/11/15 07:31:14;;;;;;;3.97;3.35;;;24.30;36.80;;;;;;5025264;28;20060;-63
2021/11/15 07:33:42;;;;;;;3.72;3.40;;;24.40;36.60;;;;;;5023563;28;20074;-66
2021/11/15 07:36:10;;;;;;;4.10;3.55;;;24.40;36.20;;;;;;5026447;28;20147;-65
2021/11/15 07:38:37;;;;;;;3.75;3.35;;;24.50;35.90;;;;;;5031605;28;20106;-65
2021/11/15 07:41:04;;;;;;;4.00;3.50;;;24.50;35.70;;;;;;5025185;28;20045;-64
2021/11/15 07:43:32;;;;;;;5.03;3.25;;;24.60;35.60;;;;;;5023896;28;20045;-65
2021/11/15 07:46:00;;;;;;;7.47;3.03;;;24.60;35.50;;;;;;5011379;28;20047;-63
2021/11/15 07:48:28;;;;;;;3.22;2.92;;;24.60;35.40;;;;;;5028075;28;20052;-66
2021/11/15 07:50:59;;;;;;;3.88;3.45;;;24.70;35.30;;;;;;5027246;28;20195;-60
2021/11/15 07:53:29;;;;;;;6.85;3.28;;;24.70;35.20;;;;;;5018902;28;20574;-65
2021/11/15 07:55:56;;;;;;;3.58;2.83;;;24.70;35.20;;;;;;5028292;28;20052;-66
2021/11/15 07:58:24;;;;;;;4.15;2.88;;;24.70;35.10;;;;;;5028454;28;20084;-68
2021/11/15 08:00:52;;;;;;;3.85;3.55;;;24.80;35.00;;;;;;5028125;28;20045;-64
2021/11/15 08:03:20;;;;;;;5.03;3.08;;;24.80;34.90;;;;;;5022282;28;20741;-67
2021/11/15 08:05:47;;;;;;;2.75;2.55;;;24.90;35.00;;;;;;5028549;28;20056;-66
2021/11/15 08:08:15;;;;;;;3.60;3.30;;;24.90;35.00;;;;;;5030238;28;20055;-65
2021/11/15 08:10:44;;;;;;;2.72;2.53;;;24.90;34.90;;;;;;5030203;28;20458;-67
2021/11/15 08:13:11;;;;;;;3.47;3.20;;;24.90;34.80;;;;;;5019069;28;20502;-66
2021/11/15 08:15:38;;;;;;;3.28;2.95;;;25.00;34.70;;;;;;5027937;28;20049;-65
2021/11/15 08:18:06;;;;;;;3.35;3.05;;;25.00;34.60;;;;;;5029036;28;20144;-66
2021/11/15 08:20:36;;;;;;;3.30;3.00;;;25.00;34.60;;;;;;5023989;28;20084;-64
2021/11/15 08:23:09;;;;;;;3.50;3.20;;;25.10;34.60;;;;;;5013765;28;20052;-64
2021/11/15 08:26:16;;;;;;;4.20;2.70;;;25.10;34.60;;;;;;5027449;28;20049;-63
2021/11/15 08:28:44;;;;;;;3.10;2.80;;;25.10;34.60;;;;;;5032339;28;20057;-63
2021/11/15 08:31:12;;;;;;;3.50;3.03;;;25.10;34.60;;;;;;5024892;28;20490;-63
2021/11/15 08:33:39;;;;;;;2.90;2.70;;;25.20;34.70;;;;;;5023237;28;20448;-63
2021/11/15 08:36:07;;;;;;;3.33;2.83;;;25.20;34.60;;;;;;5039333;28;20619;-64
2021/11/15 08:38:54;;;;;;;4.10;3.30;;;25.20;34.60;;;;;;5034142;28;20056;-64
2021/11/15 08:41:28;;;;;;;4.38;3.08;;;25.20;34.40;;;;;;5027408;28;22060;-65
2021/11/15 08:43:57;;;;;;;3.42;2.67;;;25.20;34.40;;;;;;5024989;28;20080;-66
2021/11/15 08:46:26;;;;;;;6.10;3.00;;;25.30;34.40;;;;;;5034838;28;20867;-65
2021/11/15 08:48:55;;;;;;;3.67;3.22;;;25.30;34.40;;;;;;5041604;28;20375;-65
2021/11/15 08:51:22;;;;;;;3.33;3.03;;;25.30;34.40;;;;;;5028831;28;21005;-65
2021/11/15 08:53:51;;;;;;;3.70;3.00;;;25.40;34.50;;;;;;5031144;28;20052;-65
2021/11/15 08:56:19;;;;;;;3.63;3.33;;;25.40;34.60;;;;;;5031975;28;20475;-63
2021/11/15 08:59:06;;;;;;;3.95;3.55;;;25.40;34.60;;;;;;5030409;28;20071;-64
2021/11/15 09:01:33;;;;;;;3.33;3.03;;;25.50;34.80;;;;;;5019566;28;20156;-62
2021/11/15 09:04:01;;;;;;;4.28;3.03;;;25.50;34.50;;;;;;5027576;28;20060;-64
2021/11/15 09:06:34;;;;;;;3.78;3.40;;;25.50;34.30;;;;;;5031990;28;20151;-64
2021/11/15 09:09:04;;;;;;;4.00;3.17;;;25.50;34.20;;;;;;5034733;28;20095;-64
2021/11/15 09:11:36;;;;;;;3.35;3.05;;;25.60;34.20;;;;;;5028869;28;20441;-67
2021/11/15 09:14:03;;;;;;;4.20;3.67;;;25.60;34.20;;;;;;5025611;28;20143;-64
2021/11/15 09:16:30;;;;;;;8.40;3.58;;;25.70;34.50;;;;;;5030902;28;20065;-64
2021/11/15 09:18:57;;;;;;;3.53;3.17;;;25.70;34.60;;;;;;5032134;28;20095;-65
2021/11/15 09:21:25;;;;;;;4.28;3.88;;;25.80;34.30;;;;;;5026578;28;20044;-65
2021/11/15 09:23:52;;;;;;;4.15;3.75;;;25.80;34.10;;;;;;5023807;28;21410;-65
2021/11/15 09:26:23;;;;;;;4.32;3.90;;;25.80;34.00;;;;;;5027890;28;20636;-65
2021/11/15 09:28:50;;;;;;;4.82;3.85;;;25.80;34.10;;;;;;5032242;28;20049;-71
2021/11/15 09:31:17;;;;;;;4.85;3.97;;;25.80;34.10;;;;;;5005612;28;20391;-69
2021/11/15 09:33:45;;;;;;;4.63;4.13;;;25.80;34.20;;;;;;5020552;28;20052;-67
2021/11/15 09:36:12;;;;;;;4.40;4.03;;;25.80;34.40;;;;;;5030537;28;20144;-65
2021/11/15 09:38:43;;;;;;;4.20;3.80;;;25.80;34.40;;;;;;5029519;28;20055;-66
2021/11/15 09:41:11;;;;;;;5.68;4.07;;;25.80;34.50;;;;;;5002323;28;20052;-64
2021/11/15 09:43:38;;;;;;;4.85;4.32;;;25.80;34.60;;;;;;5016353;28;20126;-66
2021/11/15 09:46:12;;;;;;;5.75;4.35;;;25.80;34.60;;;;;;5030974;28;20516;-65
2021/11/15 09:48:43;;;;;;;5.28;4.78;;;25.80;34.80;;;;;;5027174;28;20079;-66
2021/11/15 09:51:12;;;;;;;4.82;4.15;;;25.80;34.70;;;;;;5025323;28;20048;-65
2021/11/15 09:53:40;;;;;;;5.00;4.50;;;25.80;34.70;;;;;;5019927;28;20052;-65
2021/11/15 09:56:10;;;;;;;6.97;4.45;;;25.80;34.80;;;;;;5034368;28;20402;-65
2021/11/15 09:58:37;;;;;;;3.78;3.47;;;25.70;34.80;;;;;;5031001;28;20915;-65
2021/11/15 10:01:06;;;;;;;5.18;4.05;;;25.70;34.90;;;;;;5025619;28;20121;-65
2021/11/15 10:03:34;;;;;;;4.85;4.35;;;25.70;34.90;;;;;;5022773;28;20399;-65
2021/11/15 10:06:02;;;;;;;6.57;4.22;;;25.70;34.90;;;;;;5030984;28;20059;-64
2021/11/15 10:08:47;;;;;;;8.73;7.05;;;25.70;34.90;;;;;;5029738;28;20135;-63
2021/11/15 10:11:16;;;;;;;9.65;8.10;;;25.70;34.20;;;;;;5023082;28;20125;-64
2021/11/15 10:13:43;;;;;;;8.70;6.03;;;25.70;34.00;;;;;;5021401;28;21269;-61
2021/11/15 10:16:21;;;;;;;8.80;5.18;;;25.60;34.60;;;;;;5025533;28;20072;-60
2021/11/15 10:18:57;;;;;;;6.03;4.70;;;25.50;34.70;;;;;;5025737;28;20045;-61
2021/11/15 10:21:40;;;;;;;7.05;5.38;;;25.50;34.70;;;;;;5023941;28;20045;-61
2021/11/15 10:24:13;;;;;;;5.35;4.70;;;25.50;34.80;;;;;;5024986;28;20056;-61
2021/11/15 10:26:51;;;;;;;5.40;4.60;;;25.40;34.70;;;;;;5030598;28;20585;-62
2021/11/15 10:29:27;;;;;;;6.18;5.30;;;25.40;34.70;;;;;;5035153;28;20769;-59
2021/11/15 10:32:02;;;;;;;5.40;4.68;;;25.40;34.70;;;;;;5020775;28;20097;-61
2021/11/15 10:34:39;;;;;;;7.55;5.00;;;25.40;34.70;;;;;;5032658;28;20143;-61
2021/11/15 10:37:29;;;;;;;5.72;4.72;;;25.40;34.70;;;;;;5035631;28;20437;-61
2021/11/15 10:40:06;;;;;;;6.50;4.82;;;25.30;34.70;;;;;;5029234;28;20054;-60
2021/11/15 10:42:38;;;;;;;5.88;4.85;;;25.30;34.80;;;;;;5014670;28;20674;-62
2021/11/15 10:45:19;;;;;;;8.15;5.50;;;25.30;34.80;;;;;;5030995;28;20147;-61
2021/11/15 10:47:55;;;;;;;5.60;5.10;;;25.30;34.80;;;;;;5032229;28;20113;-61
2021/11/15 10:50:45;;;;;;;11.07;6.37;;;25.30;34.90;;;;;;5029218;28;20127;-62
2021/11/15 10:53:23;;;;;;;7.63;6.00;;;25.30;34.90;;;;;;5019956;28;20357;-64
2021/11/15 10:56:26;;;;;;;7.72;5.80;;;25.30;35.00;;;;;;5034637;28;20705;-64
2021/11/15 10:58:54;;;;;;;9.02;6.25;;;25.40;35.10;;;;;;5035827;28;20102;-64
2021/11/15 11:01:34;;;;;;;6.55;5.90;;;25.40;35.10;;;;;;5028277;28;20173;-64
2021/11/15 11:04:08;;;;;;;8.15;6.25;;;25.40;35.10;;;;;;5035818;28;20608;-64
2021/11/15 11:07:07;;;;;;;7.63;6.75;;;25.40;35.00;;;;;;5027952;28;20092;-66
2021/11/15 11:09:41;;;;;;;9.18;6.55;;;25.40;35.00;;;;;;5029699;28;20417;-63
2021/11/15 11:12:18;;;;;;;7.78;6.38;;;25.50;35.00;;;;;;5020977;28;20053;-64
2021/11/15 11:14:50;;;;;;;8.15;6.72;;;25.50;35.00;;;;;;5029625;28;20048;-64
2021/11/15 11:17:18;;;;;;;7.45;6.65;;;25.50;34.90;;;;;;5030441;28;20045;-64
2021/11/15 11:20:06;;;;;;;8.23;6.68;;;25.50;34.90;;;;;;5027155;28;20060;-64
2021/11/15 11:23:03;;;;;;;9.13;6.97;;;25.50;34.90;;;;;;5009729;28;20102;-64
2021/11/15 11:25:25;;;;;;;9.75;6.68;;;25.50;34.80;;;;;;5038995;28;20478;-65
2021/11/15 11:27:55;;;;;;;9.45;6.68;;;25.50;34.80;;;;;;5028614;28;20053;-63
2021/11/15 11:30:23;;;;;;;7.90;6.55;;;25.50;34.80;;;;;;5021333;28;20053;-64
2021/11/15 11:32:52;;;;;;;10.95;7.72;;;25.40;34.80;;;;;;5014654;28;20067;-63
2021/11/15 11:35:19;;;;;;;8.23;7.27;;;25.50;34.80;;;;;;5027535;28;20406;-63
2021/11/15 11:37:47;;;;;;;10.50;6.68;;;25.40;34.80;;;;;;5030146;28;20110;-63
2021/11/15 11:40:14;;;;;;;8.60;7.18;;;25.40;34.80;;;;;;5025507;28;20504;-64
2021/11/15 11:42:42;;;;;;;15.48;6.97;;;25.40;35.00;;;;;;5014229;28;20110;-65
2021/11/15 11:45:12;;;;;;;11.73;7.25;;;25.40;35.10;;;;;;5029214;28;20053;-64
2021/11/15 11:47:40;;;;;;;;;;;25.40;35.20;;;;;;5026505;28;20474;-64
2021/11/15 11:50:11;;;;;;;8.63;7.03;;;25.50;35.40;;;;;;5028774;28;19928;-63
2021/11/15 11:52:40;;;;;;;10.85;7.10;;;25.50;35.50;;;;;;5010085;28;20497;-66
2021/11/15 11:55:21;;;;;;;8.50;7.20;;;25.50;35.50;;;;;;5030648;28;20577;-64
2021/11/15 11:57:48;;;;;;;7.95;6.75;;;25.50;35.40;;;;;;5033505;28;20045;-61
2021/11/15 12:00:16;;;;;;;18.83;8.40;;;25.60;35.50;;;;;;5031326;28;20049;-62
2021/11/15 12:02:45;;;;;;;15.90;7.25;;;25.50;35.40;;;;;;5014846;28;20044;-63
2021/11/15 12:05:18;;;;;;;32.10;8.77;;;25.60;35.60;;;;;;5029267;28;20113;-64
2021/11/15 12:07:55;;;;;;;13.57;8.52;;;25.60;35.60;;;;;;5024324;28;20482;-66
2021/11/15 12:10:43;;;;;;;10.27;8.10;;;25.60;35.50;;;;;;5034738;28;20048;-62
2021/11/15 12:13:13;;;;;;;11.23;7.80;;;25.70;35.50;;;;;;5016957;28;20057;-63
2021/11/15 12:15:56;;;;;;;14.80;8.20;;;25.70;35.40;;;;;;5032183;28;20518;-64
2021/11/15 12:18:26;;;;;;;14.05;8.02;;;25.70;35.30;;;;;;5037013;28;20040;-65
2021/11/15 12:21:11;;;;;;;12.68;8.50;;;25.70;35.30;;;;;;5026159;28;20064;-64
2021/11/15 12:24:08;;;;;;;9.98;7.70;;;25.70;35.40;;;;;;5026932;28;20080;-66
2021/11/15 12:26:40;;;;;;;10.05;7.60;;;25.70;35.40;;;;;;5032529;28;20502;-65
2021/11/15 12:29:27;;;;;;;13.57;8.93;;;25.70;35.30;;;;;;5036182;28;20049;-65
2021/11/15 12:32:04;;;;;;;9.07;7.57;;;25.60;35.30;;;;;;5021670;28;20493;-64
2021/11/15 12:34:54;;;;;;;12.43;8.07;;;25.60;35.30;;;;;;5027166;28;20051;-65
2021/11/15 12:37:32;;;;;;;;;;;25.70;35.40;;;;;;5033998;28;20532;-64
2021/11/15 12:40:00;;;;;;;11.00;7.88;;;25.60;35.40;;;;;;5030759;28;20377;-65
2021/11/15 12:42:29;;;;;;;10.45;8.10;;;25.60;35.40;;;;;;5016361;28;20052;-65
2021/11/15 12:45:14;;;;;;;12.57;7.80;;;25.60;35.40;;;;;;5033518;28;20131;-68
2021/11/15 12:47:44;;;;;;;9.98;7.32;;;25.60;35.40;;;;;;5036261;28;20053;-64
2021/11/15 12:50:18;;;;;;;9.68;8.10;;;25.60;35.40;;;;;;5031727;28;20080;-65
2021/11/15 12:52:59;;;;;;;10.27;8.30;;;25.50;35.20;;;;;;5016581;28;20129;-64
2021/11/15 12:55:32;;;;;;;9.23;8.10;;;25.50;35.30;;;;;;5029650;28;20049;-63
2021/11/15 12:58:02;;;;;;;9.80;7.85;;;25.50;35.30;;;;;;5034773;28;20056;-66
2021/11/15 13:00:33;;;;;;;10.43;8.38;;;25.50;35.30;;;;;;5033405;28;20084;-64